Time;durP1;ratioP1;P1;durP2;ratioP2;P2;SDS_P1;SDS_P2;PMS_P1;PMS_P2;Temp;Humidity;BMP_temperature;BMP_pressure;BME280_temperature;BME280_humidity;BME280_pressure;Samples;Min_cycle;Max_cycle;Signal;HPM_P1;HPM_P2
2021/08/28 00:01:06;;;;;;;21.45;14.80;;;;;;;16.56;89.92;100476.32;1801075;79;21229;-55
2021/08/28 00:04:12;;;;;;;19.52;14.13;;;;;;;16.51;89.97;100479.72;1801070;78;21362;-55
2021/08/28 00:07:18;;;;;;;16.82;13.70;;;;;;;16.48;90.02;100481.53;1801153;79;21335;-53
2021/08/28 00:10:23;;;;;;;17.90;14.35;;;;;;;16.47;90.15;100480.36;1801338;78;21536;-54
2021/08/28 00:13:30;;;;;;;17.77;13.58;;;;;;;16.44;90.24;100482.48;1801263;78;21824;-54
2021/08/28 00:16:38;;;;;;;15.58;13.18;;;;;;;16.44;90.44;100486.62;1768465;81;21339;-55
2021/08/28 00:19:44;;;;;;;17.02;13.75;;;;;;;16.43;90.25;100487.66;1768922;80;21359;-55
2021/08/28 00:22:48;;;;;;;19.48;13.25;;;;;;;16.39;90.10;100493.28;1768839;80;21759;-55
2021/08/28 00:25:56;;;;;;;16.70;12.90;;;;;;;16.38;90.37;100492.97;1768230;81;21395;-54
2021/08/28 00:29:02;;;;;;;15.80;13.43;;;;;;;16.35;90.59;100498.92;1772961;79;21340;-54
2021/08/28 00:32:07;;;;;;;17.32;12.98;;;;;;;16.36;91.14;100503.38;1768594;80;21312;-54
2021/08/28 00:35:13;;;;;;;14.43;12.20;;;;;;;16.39;91.31;100503.50;1768498;80;21406;-54
2021/08/28 00:38:20;;;;;;;16.23;12.73;;;;;;;16.36;90.96;100506.13;1769546;79;21332;-54
2021/08/28 00:41:26;;;;;;;17.20;13.40;;;;;;;16.33;90.87;100502.97;1768637;80;21392;-54
2021/08/28 00:44:33;;;;;;;21.00;14.58;;;;;;;16.34;91.01;100507.42;1771814;79;21407;-54
2021/08/28 00:47:38;;;;;;;18.62;14.10;;;;;;;16.34;90.90;100511.05;1780432;79;21316;-54
2021/08/28 00:50:46;;;;;;;17.05;13.08;;;;;;;16.33;90.74;100518.98;1769748;79;21363;-55
2021/08/28 00:53:53;;;;;;;19.87;13.98;;;;;;;16.30;90.33;100523.56;1770424;79;21201;-54
2021/08/28 00:57:00;;;;;;;17.00;13.90;;;;;;;16.27;90.17;100519.84;1758569;80;21359;-54
2021/08/28 01:00:08;;;;;;;19.40;13.58;;;;;;;16.26;90.04;100515.38;1768385;80;22167;-54
2021/08/28 01:03:14;;;;;;;18.40;13.10;;;;;;;16.27;90.28;100528.13;1771847;79;21335;-54
2021/08/28 01:06:50;;;;;;;17.77;13.58;;;;;;;16.30;90.61;100522.17;1768619;80;21240;-54
2021/08/28 01:10:01;;;;;;;19.87;13.93;;;;;;;16.31;90.54;100523.03;1769404;80;21725;-54
2021/08/28 01:13:21;;;;;;;35.00;14.93;;;;;;;16.28;90.21;100518.77;1751333;80;21210;-54
2021/08/28 01:16:28;;;;;;;27.02;15.72;;;;;;;16.22;89.92;100519.61;1781585;79;21194;-54
2021/08/28 01:19:48;;;;;;;23.27;14.75;;;;;;;16.16;90.09;100529.25;1768517;80;21272;-55
2021/08/28 01:23:14;;;;;;;23.30;14.47;;;;;;;16.14;90.27;100526.70;1768156;80;21189;-55
2021/08/28 01:26:24;;;;;;;19.17;14.45;;;;;;;16.12;90.23;100521.94;1768304;81;21308;-56
2021/08/28 01:29:40;;;;;;;23.02;16.55;;;;;;;16.10;89.99;100530.09;1768248;80;21221;-56
2021/08/28 01:32:46;;;;;;;23.85;15.63;;;;;;;16.06;89.72;100528.27;1768157;81;21327;-56
2021/08/28 01:35:55;;;;;;;21.33;13.98;;;;;;;16.02;89.44;100530.27;1768066;81;21336;-55
2021/08/28 01:39:06;;;;;;;14.65;12.28;;;;;;;16.01;89.28;100529.97;1767162;80;21406;-54
2021/08/28 01:42:14;;;;;;;15.48;12.75;;;;;;;15.94;88.86;100524.94;1777704;80;21363;-54
2021/08/28 01:45:20;;;;;;;13.58;11.93;;;;;;;15.88;88.65;100525.77;1768227;80;21849;-55
2021/08/28 01:48:26;;;;;;;14.40;12.23;;;;;;;15.80;88.62;100520.42;1768209;80;21344;-55
2021/08/28 01:51:36;;;;;;;13.95;11.18;;;;;;;15.75;88.81;100519.67;1768281;81;21730;-55
2021/08/28 01:54:43;;;;;;;13.30;11.83;;;;;;;15.72;88.95;100517.32;1767916;80;21343;-55
2021/08/28 01:57:50;;;;;;;12.47;11.05;;;;;;;15.70;89.02;100520.81;1767923;81;21336;-55
2021/08/28 02:01:08;;;;;;;13.22;11.50;;;;;;;15.71;89.25;100519.77;1768241;81;21352;-55
2021/08/28 02:04:13;;;;;;;13.22;11.83;;;;;;;15.72;89.38;100515.08;1768196;80;21753;-55
2021/08/28 02:07:26;;;;;;;15.75;12.03;;;;;;;15.70;89.25;100518.05;1768427;80;21363;-55
2021/08/28 02:10:46;;;;;;;16.50;13.03;;;;;;;15.69;89.52;100517.73;1768378;80;21371;-55
2021/08/28 02:14:13;;;;;;;15.68;12.50;;;;;;;15.70;89.59;100512.53;1768049;80;21379;-55
2021/08/28 02:17:18;;;;;;;16.20;12.20;;;;;;;15.70;89.28;100516.67;1768124;81;21407;-55
2021/08/28 02:20:24;;;;;;;15.93;12.53;;;;;;;15.65;88.98;100516.42;1768331;80;21430;-54
2021/08/28 02:24:00;;;;;;;17.12;13.10;;;;;;;15.60;88.97;100523.63;1768411;80;21323;-55
2021/08/28 02:27:10;;;;;;;16.97;12.82;;;;;;;15.55;89.03;100524.25;1801703;79;21319;-55
2021/08/28 02:30:17;;;;;;;16.27;13.35;;;;;;;15.54;89.24;100528.59;1802292;79;21224;-56
2021/08/28 02:33:31;;;;;;;17.85;12.98;;;;;;;15.53;89.58;100529.63;1768472;80;21356;-55
2021/08/28 02:36:39;;;;;;;17.27;13.93;;;;;;;15.55;89.80;100527.02;1768339;81;21387;-55
2021/08/28 02:39:46;;;;;;;15.25;13.05;;;;;;;15.57;89.64;100531.77;1768043;80;21345;-55
2021/08/28 02:42:51;;;;;;;16.85;13.72;;;;;;;15.54;89.42;100531.36;1768420;80;21395;-55
2021/08/28 02:46:00;;;;;;;14.98;12.93;;;;;;;15.53;89.47;100538.77;1768013;81;21308;-55
2021/08/28 02:49:06;;;;;;;15.78;13.15;;;;;;;15.49;89.36;100525.05;1768143;80;21363;-55
2021/08/28 02:52:14;;;;;;;18.00;13.75;;;;;;;15.48;89.24;100530.25;1768464;80;21427;-55
2021/08/28 02:55:19;;;;;;;17.35;12.75;;;;;;;15.46;89.22;100529.59;1768058;79;21347;-55
2021/08/28 02:58:24;;;;;;;14.58;12.25;;;;;;;15.40;89.29;100525.41;1768419;80;21324;-55
2021/08/28 03:01:29;;;;;;;15.78;11.38;;;;;;;15.35;89.54;100526.00;1768136;80;21395;-56
2021/08/28 03:04:35;;;;;;;10.93;9.55;;;;;;;15.32;89.76;100530.54;1768147;80;21411;-53
2021/08/28 03:07:41;;;;;;;16.25;10.50;;;;;;;15.25;89.93;100528.28;1768307;80;21312;-54
2021/08/28 03:10:49;;;;;;;12.58;9.13;;;;;;;15.20;90.34;100520.28;1768362;81;21790;-54
2021/08/28 03:13:55;;;;;;;15.05;10.13;;;;;;;15.19;90.72;100520.80;1768188;80;21403;-53
2021/08/28 03:17:02;;;;;;;11.70;9.70;;;;;;;15.16;90.77;100529.48;1768686;80;21340;-53
2021/08/28 03:20:08;;;;;;;14.70;10.03;;;;;;;15.20;91.26;100530.80;1768431;80;21406;-53
2021/08/28 03:23:13;;;;;;;14.73;10.08;;;;;;;15.27;91.52;100533.05;1758311;81;21367;-53
2021/08/28 03:26:26;;;;;;;16.20;11.38;;;;;;;15.30;91.37;100537.33;1768450;80;21822;-53
2021/08/28 03:29:32;;;;;;;16.80;11.15;;;;;;;15.36;91.36;100540.65;1754872;80;21355;-53
2021/08/28 03:32:38;;;;;;;16.35;10.40;;;;;;;15.37;91.39;100544.59;1768356;81;21201;-54
2021/08/28 03:35:47;;;;;;;20.00;11.30;;;;;;;15.38;91.38;100543.55;1768147;80;21197;-54
2021/08/28 03:38:52;;;;;;;28.73;12.90;;;;;;;15.41;91.57;100545.93;1767690;80;21193;-54
2021/08/28 03:41:58;;;;;;;15.93;12.10;;;;;;;15.49;92.08;100546.28;1767842;80;21264;-52
2021/08/28 03:45:05;;;;;;;25.23;12.88;;;;;;;15.55;91.97;100546.33;1767845;80;21352;-54
2021/08/28 03:48:12;;;;;;;23.10;14.13;;;;;;;15.58;91.85;100554.71;1765921;81;21705;-53
2021/08/28 03:51:18;;;;;;;24.87;15.30;;;;;;;15.62;92.00;100547.20;1765833;80;21158;-52
2021/08/28 03:54:23;;;;;;;23.90;14.90;;;;;;;15.65;92.00;100561.97;1766277;79;21714;-52
2021/08/28 03:57:29;;;;;;;24.02;16.85;;;;;;;15.72;92.16;100568.91;1765688;79;21202;-56
2021/08/28 04:00:34;;;;;;;24.25;17.92;;;;;;;15.79;92.21;100564.28;1791938;79;21193;-54
2021/08/28 04:03:40;;;;;;;24.92;17.85;;;;;;;15.82;91.93;100572.16;1803393;79;22243;-54
2021/08/28 04:06:46;;;;;;;21.07;15.93;;;;;;;15.82;91.75;100567.49;1779256;80;21333;-54
2021/08/28 04:09:52;;;;;;;29.15;17.48;;;;;;;15.84;91.95;100565.36;1810018;79;21355;-54
2021/08/28 04:12:58;;;;;;;29.72;18.82;;;;;;;15.95;92.25;100568.08;1778548;80;21186;-54
2021/08/28 04:16:06;;;;;;;24.65;18.07;;;;;;;16.02;92.56;100568.42;1810224;78;21713;-54
2021/08/28 04:19:14;;;;;;;24.82;17.85;;;;;;;16.11;92.64;100580.98;1781300;79;21422;-54
2021/08/28 04:22:22;;;;;;;20.37;16.60;;;;;;;16.19;92.75;100583.56;1788429;79;21382;-52
2021/08/28 04:25:33;;;;;;;24.23;16.95;;;;;;;16.28;92.81;100581.48;1736152;82;21234;-53
2021/08/28 04:28:46;;;;;;;22.50;17.20;;;;;;;16.34;92.80;100561.30;1733626;82;21264;-53
2021/08/28 04:31:52;;;;;;;22.17;15.75;;;;;;;16.39;92.73;100568.44;1767736;80;21198;-53
2021/08/28 04:34:57;;;;;;;23.98;17.17;;;;;;;16.46;92.76;100569.88;1771287;79;21221;-52
2021/08/28 04:38:04;;;;;;;26.12;17.67;;;;;;;16.52;92.71;100563.50;1766349;80;21387;-52
2021/08/28 04:41:13;;;;;;;23.02;18.20;;;;;;;16.56;92.75;100565.63;1767326;80;21170;-52
2021/08/28 04:44:18;;;;;;;23.83;18.98;;;;;;;16.67;93.05;100566.91;1768555;79;21218;-52
2021/08/28 04:47:25;;;;;;;26.27;18.65;;;;;;;16.78;93.23;100566.28;1767665;80;21351;-52
2021/08/28 04:50:31;;;;;;;25.25;18.87;;;;;;;16.91;93.35;100556.62;1769727;79;21865;-52
2021/08/28 04:53:37;;;;;;;27.55;19.45;;;;;;;17.00;93.27;100556.75;1768255;80;21343;-54
2021/08/28 04:56:43;;;;;;;31.20;21.33;;;;;;;17.12;93.27;100550.88;1768503;80;21664;-51
2021/08/28 04:59:49;;;;;;;27.48;20.40;;;;;;;17.22;93.10;100554.90;1765984;80;21762;-52
2021/08/28 05:02:59;;;;;;;34.58;22.50;;;;;;;17.33;93.12;100556.19;1757979;81;21174;-52
2021/08/28 05:06:05;;;;;;;34.60;21.20;;;;;;;17.49;93.23;100562.13;1765833;80;21182;-52
2021/08/28 05:09:11;;;;;;;30.08;22.27;;;;;;;17.63;93.25;100560.20;1759484;81;22046;-52
2021/08/28 05:12:17;;;;;;;29.32;22.15;;;;;;;17.75;93.07;100560.69;1781972;79;21177;-52
2021/08/28 05:15:33;;;;;;;28.55;21.77;;;;;;;17.90;92.93;100565.41;1779314;80;21866;-51
2021/08/28 05:18:39;;;;;;;28.80;22.62;;;;;;;18.05;92.46;100568.44;1771114;80;21243;-53
2021/08/28 05:21:47;;;;;;;26.68;21.87;;;;;;;18.17;92.06;100573.07;1715522;82;21210;-49
2021/08/28 05:25:10;;;;;;;;;;;;;;;18.32;91.80;100579.20;1695985;84;21192;-48
2021/08/28 05:28:17;;;;;;;24.90;19.02;;;;;;;18.47;91.40;100580.33;1797998;79;20209;-48
2021/08/28 05:31:25;;;;;;;28.12;21.33;;;;;;;18.58;90.97;100580.48;1738135;81;21911;-49
2021/08/28 05:34:32;;;;;;;25.37;20.52;;;;;;;18.72;90.63;100579.84;1751042;80;21347;-49
2021/08/28 05:37:42;;;;;;;26.40;19.73;;;;;;;18.86;90.33;100584.22;1718132;81;21754;-50
2021/08/28 05:40:54;;;;;;;27.98;20.55;;;;;;;18.96;90.09;100579.86;1725633;82;21191;-49
2021/08/28 05:43:59;;;;;;;27.32;21.07;;;;;;;19.11;89.95;100583.16;1775785;79;21630;-49
2021/08/28 05:47:06;;;;;;;29.57;21.65;;;;;;;19.24;89.99;100574.73;1752968;80;21200;-50
2021/08/28 05:50:14;;;;;;;25.88;20.55;;;;;;;19.38;89.97;100572.70;1751378;79;21190;-49
2021/08/28 05:53:19;;;;;;;26.75;21.20;;;;;;;19.53;89.89;100580.68;1795891;79;21848;-49
2021/08/28 05:56:24;;;;;;;28.50;21.17;;;;;;;19.66;89.82;100587.50;1768988;81;21479;-50
2021/08/28 05:59:30;;;;;;;27.25;21.75;;;;;;;19.79;89.64;100585.97;1766902;78;21215;-49
2021/08/28 06:02:35;;;;;;;26.30;20.82;;;;;;;19.92;89.37;100584.41;1744820;82;21185;-50
2021/08/28 06:05:47;;;;;;;28.38;20.82;;;;;;;20.04;88.96;100575.63;1743939;82;21221;-49
2021/08/28 06:09:10;;;;;;;24.02;18.77;;;;;;;20.18;88.49;100579.44;1680626;85;21235;-50
2021/08/28 06:12:35;;;;;;;25.88;19.87;;;;;;;20.40;87.27;100583.95;1859516;76;22240;-50
2021/08/28 06:15:58;;;;;;;24.05;19.15;;;;;;;20.43;86.42;100585.72;1804448;79;21304;-49
2021/08/28 06:19:04;;;;;;;23.83;19.00;;;;;;;20.57;85.55;100582.20;1771532;80;21371;-49
2021/08/28 06:22:09;;;;;;;22.60;18.60;;;;;;;20.68;84.94;100575.83;1794832;79;21335;-48
2021/08/28 06:25:15;;;;;;;23.40;17.87;;;;;;;20.80;84.04;100575.34;1783916;78;21190;-49
2021/08/28 06:28:21;;;;;;;22.32;17.82;;;;;;;20.91;82.75;100571.73;1767344;79;21170;-48
2021/08/28 06:31:26;;;;;;;21.68;17.32;;;;;;;21.02;81.03;100576.52;1792594;79;21351;-49
2021/08/28 06:34:33;;;;;;;20.10;15.98;;;;;;;21.11;79.79;100577.85;1783402;79;21858;-49
2021/08/28 06:37:43;;;;;;;17.42;15.03;;;;;;;21.21;79.44;100574.48;1789689;79;21315;-49
2021/08/28 06:41:08;;;;;;;21.10;14.58;;;;;;;21.31;79.01;100576.96;1773440;79;21348;-48
2021/08/28 06:44:32;;;;;;;16.50;14.70;;;;;;;21.42;77.81;100580.30;1785441;79;21394;-50
2021/08/28 06:47:56;;;;;;;17.42;15.05;;;;;;;21.52;77.13;100579.16;1771641;79;21196;-50
2021/08/28 06:51:22;;;;;;;19.48;13.85;;;;;;;21.63;76.58;100588.59;1781387;79;21825;-49
2021/08/28 06:54:44;;;;;;;17.62;14.63;;;;;;;21.73;76.36;100598.06;1783676;79;21830;-49
2021/08/28 06:58:02;;;;;;;14.87;12.90;;;;;;;21.84;75.13;100597.78;1761129;79;21757;-50
2021/08/28 07:01:25;;;;;;;17.00;14.38;;;;;;;21.93;74.25;100594.38;1773979;79;21896;-49
2021/08/28 07:04:49;;;;;;;15.13;13.45;;;;;;;22.03;73.20;100605.77;1773072;80;21334;-50
2021/08/28 07:08:02;;;;;;;16.05;12.20;;;;;;;22.12;72.96;100598.70;1762441;81;21173;-50
2021/08/28 07:11:08;;;;;;;14.90;11.97;;;;;;;22.23;72.39;100593.36;1771291;80;21856;-50
2021/08/28 07:14:14;;;;;;;14.03;12.47;;;;;;;22.32;71.19;100587.68;1775050;79;21209;-49
2021/08/28 07:17:20;;;;;;;17.25;12.93;;;;;;;22.43;70.43;100582.61;1736865;82;21185;-50
2021/08/28 07:20:26;;;;;;;14.68;12.25;;;;;;;22.52;69.98;100587.58;1727707;82;21342;-52
2021/08/28 07:23:33;;;;;;;16.45;12.70;;;;;;;22.60;70.02;100598.34;1726933;83;21187;-50
2021/08/28 07:26:40;;;;;;;17.95;12.88;;;;;;;22.67;69.00;100596.81;1719167;82;21736;-49
2021/08/28 07:29:53;;;;;;;13.68;11.60;;;;;;;22.75;69.01;100594.47;1707517;83;21271;-50
2021/08/28 07:32:58;;;;;;;13.48;10.85;;;;;;;22.85;68.36;100586.84;1705618;82;21222;-50
2021/08/28 07:36:03;;;;;;;15.32;10.53;;;;;;;22.95;66.65;100596.78;1735185;81;21240;-50
2021/08/28 07:39:10;;;;;;;13.83;10.40;;;;;;;23.02;64.84;100594.69;1727269;82;21253;-51
2021/08/28 07:42:16;;;;;;;13.93;10.32;;;;;;;23.09;64.41;100592.02;1748319;80;21856;-52
2021/08/28 07:45:24;;;;;;;12.23;10.68;;;;;;;23.18;64.41;100595.27;1773963;79;21233;-50
2021/08/28 07:48:33;;;;;;;12.70;9.93;;;;;;;23.30;64.24;100590.46;1776012;79;21368;-53
2021/08/28 07:51:40;;;;;;;11.22;9.20;;;;;;;23.37;63.19;100581.38;1785115;79;21361;-56
2021/08/28 07:54:47;;;;;;;14.50;8.93;;;;;;;23.44;61.89;100573.65;1785594;79;21275;-56
2021/08/28 07:57:52;;;;;;;11.22;9.30;;;;;;;23.51;61.05;100562.61;1715780;81;21180;-55
2021/08/28 08:00:59;;;;;;;10.35;8.60;;;;;;;23.58;60.92;100558.21;1788102;79;21221;-51
2021/08/28 08:04:08;;;;;;;10.25;8.00;;;;;;;23.65;60.30;100564.48;1780683;79;21390;-53
2021/08/28 08:07:28;;;;;;;11.45;9.15;;;;;;;23.73;59.96;100568.24;1702644;82;21236;-51
2021/08/28 08:10:54;;;;;;;10.60;8.75;;;;;;;23.80;59.06;100572.26;1690520;83;21242;-52
2021/08/28 08:14:18;;;;;;;9.88;8.35;;;;;;;23.88;58.62;100567.62;1681276;83;21729;-51
2021/08/28 08:17:41;;;;;;;12.45;9.18;;;;;;;23.96;57.76;100572.20;1765258;81;21157;-51
2021/08/28 08:21:05;;;;;;;11.05;9.80;;;;;;;24.05;57.71;100583.83;1765028;80;21710;-51
2021/08/28 08:24:28;;;;;;;13.10;9.78;;;;;;;24.14;57.36;100578.92;1699252;84;21846;-51
2021/08/28 08:27:44;;;;;;;12.03;9.88;;;;;;;24.22;58.01;100581.27;1743274;81;22032;-52
2021/08/28 08:30:54;;;;;;;13.18;10.28;;;;;;;24.30;56.75;100580.82;1723591;82;21291;-51
2021/08/28 08:34:01;;;;;;;12.35;10.30;;;;;;;24.38;55.67;100574.77;1754276;80;21169;-53
2021/08/28 08:37:08;;;;;;;13.00;10.00;;;;;;;24.45;56.14;100576.80;1745322;81;21232;-52
2021/08/28 08:40:14;;;;;;;18.37;11.08;;;;;;;24.52;55.33;100573.25;1745955;81;21196;-52
2021/08/28 08:43:18;;;;;;;13.95;10.15;;;;;;;24.59;55.72;100569.67;1748922;81;21200;-52
2021/08/28 08:46:24;;;;;;;15.80;9.30;;;;;;;24.67;55.20;100573.44;1765629;80;21260;-51
2021/08/28 08:49:29;;;;;;;18.65;10.32;;;;;;;24.75;54.52;100569.34;1765627;81;21777;-52
2021/08/28 08:52:34;;;;;;;11.30;9.55;;;;;;;24.83;54.80;100561.88;1765653;81;21216;-51
2021/08/28 08:55:43;;;;;;;11.85;9.90;;;;;;;24.88;54.15;100569.75;1748882;81;21699;-50
2021/08/28 08:58:49;;;;;;;11.03;9.85;;;;;;;24.94;53.79;100564.48;1764730;81;21204;-51
2021/08/28 09:01:56;;;;;;;13.38;10.70;;;;;;;25.00;53.72;100562.05;1765006;81;21176;-51
2021/08/28 09:05:03;;;;;;;13.25;9.78;;;;;;;25.10;53.56;100563.24;1744604;81;21207;-51
2021/08/28 09:08:13;;;;;;;12.35;10.00;;;;;;;25.19;53.05;100565.84;1740219;81;21733;-51
2021/08/28 09:11:36;;;;;;;13.18;9.93;;;;;;;25.30;53.06;100567.61;1763333;81;21179;-53
2021/08/28 09:14:42;;;;;;;12.60;10.20;;;;;;;25.40;52.90;100560.19;1762572;78;21205;-51
2021/08/28 09:17:51;;;;;;;10.88;9.68;;;;;;;25.53;52.94;100567.29;1789197;79;21218;-52
2021/08/28 09:20:56;;;;;;;12.05;10.10;;;;;;;25.68;52.92;100568.78;1793779;79;21323;-52
2021/08/28 09:24:14;;;;;;;11.22;9.65;;;;;;;25.79;51.44;100573.34;1781345;79;21231;-48
2021/08/28 09:27:19;;;;;;;14.03;10.88;;;;;;;25.87;51.39;100565.27;1785044;79;21192;-53
2021/08/28 09:30:35;;;;;;;12.15;8.88;;;;;;;25.96;52.73;100565.59;1772961;79;21285;-50
2021/08/28 09:33:42;;;;;;;12.18;9.88;;;;;;;26.08;52.02;100560.65;1770506;80;21587;-47
2021/08/28 09:36:47;;;;;;;14.40;11.43;;;;;;;26.18;51.92;100564.34;1811996;79;21169;-48
2021/08/28 09:39:56;;;;;;;11.48;10.23;;;;;;;26.26;52.04;100565.77;1802938;79;21177;-48
2021/08/28 09:43:04;;;;;;;10.55;9.45;;;;;;;26.31;52.03;100557.38;1803509;79;21719;-48
2021/08/28 09:46:15;;;;;;;15.93;10.35;;;;;;;26.35;50.96;100555.14;1812686;78;21311;-48
2021/08/28 09:49:21;;;;;;;12.25;10.55;;;;;;;26.44;52.36;100557.72;1785288;79;21323;-49
2021/08/28 09:52:32;;;;;;;13.08;10.90;;;;;;;26.55;51.10;100560.55;1775216;79;21762;-48
2021/08/28 09:55:40;;;;;;;15.10;11.40;;;;;;;26.63;51.33;100556.66;1781934;79;21308;-52
2021/08/28 09:58:49;;;;;;;14.35;12.00;;;;;;;26.75;51.56;100553.05;1771850;80;21351;-51
2021/08/28 10:01:56;;;;;;;12.40;11.10;;;;;;;26.92;50.22;100563.50;1777523;79;21331;-50
2021/08/28 10:05:10;;;;;;;12.78;10.68;;;;;;;27.06;48.86;100556.20;1814231;79;21346;-49
2021/08/28 10:08:14;;;;;;;11.90;10.65;;;;;;;27.11;48.55;100564.65;1795398;79;21354;-50
2021/08/28 10:11:19;;;;;;;13.25;11.33;;;;;;;27.18;49.91;100551.73;1799950;79;21346;-50
2021/08/28 10:14:27;;;;;;;14.30;10.35;;;;;;;27.28;49.64;100550.33;1780252;79;21684;-52
2021/08/28 10:17:32;;;;;;;14.45;11.15;;;;;;;27.34;50.39;100554.83;1770716;80;21716;-51
2021/08/28 10:20:37;;;;;;;13.90;10.53;;;;;;;27.35;48.32;100555.13;1771233;80;21203;-53
2021/08/28 10:23:42;;;;;;;14.20;10.72;;;;;;;27.42;48.05;100553.70;1750734;81;21195;-55
2021/08/28 10:26:51;;;;;;;12.33;10.70;;;;;;;27.51;47.67;100559.04;1771838;79;21252;-53
2021/08/28 10:29:58;;;;;;;14.13;10.60;;;;;;;27.61;48.02;100561.00;1768584;80;21260;-52
2021/08/28 10:33:02;;;;;;;13.38;9.85;;;;;;;27.64;47.28;100561.28;1761804;80;21192;-52
2021/08/28 10:36:10;;;;;;;12.78;9.93;;;;;;;27.73;47.23;100560.97;1755541;80;21251;-53
2021/08/28 10:39:19;;;;;;;11.53;9.55;;;;;;;27.85;47.45;100563.49;1770917;80;21551;-53
2021/08/28 10:42:26;;;;;;;13.50;9.35;;;;;;;27.78;46.40;100567.19;1777593;79;21742;-52
2021/08/28 10:45:34;;;;;;;13.58;9.88;;;;;;;27.69;46.79;100566.05;1772784;79;21257;-53
2021/08/28 10:49:01;;;;;;;9.58;8.55;;;;;;;27.78;47.12;100565.19;1718474;82;21239;-54
2021/08/28 10:52:06;;;;;;;10.60;8.90;;;;;;;27.82;47.53;100560.70;1771591;79;21208;-52
2021/08/28 10:55:20;;;;;;;12.65;8.73;;;;;;;27.77;48.22;100572.52;1760543;79;21359;-54
2021/08/28 10:58:30;;;;;;;11.50;9.10;;;;;;;27.66;47.12;100567.48;1790926;79;21170;-53
2021/08/28 11:01:57;;;;;;;10.45;8.93;;;;;;;27.57;47.29;100560.74;1798575;79;21220;-55
2021/08/28 11:05:04;;;;;;;9.98;8.75;;;;;;;27.50;47.50;100555.95;1781758;79;21303;-53
2021/08/28 11:08:26;;;;;;;13.60;9.05;;;;;;;27.42;49.08;100553.70;1764540;79;21200;-53
2021/08/28 11:11:42;;;;;;;11.15;9.05;;;;;;;27.42;49.42;100545.27;1802139;79;21284;-54
2021/08/28 11:14:48;;;;;;;12.18;8.98;;;;;;;27.59;48.18;100547.22;1801403;79;21209;-55
2021/08/28 11:17:54;;;;;;;10.40;8.65;;;;;;;27.83;47.94;100538.45;1800082;78;21181;-52
2021/08/28 11:21:01;;;;;;;12.23;9.03;;;;;;;28.07;47.60;100535.05;1774827;79;21246;-53
2021/08/28 11:24:06;;;;;;;13.65;9.50;;;;;;;28.31;46.81;100534.65;1770130;80;21274;-53
2021/08/28 11:27:14;;;;;;;12.90;9.60;;;;;;;28.48;46.02;100537.41;1742955;80;21250;-52
2021/08/28 11:30:21;;;;;;;15.30;9.25;;;;;;;28.61;45.26;100536.78;1769382;80;21266;-52
2021/08/28 11:33:38;;;;;;;12.20;9.18;;;;;;;28.65;45.06;100534.23;1762323;80;21545;-52
2021/08/28 11:36:44;;;;;;;13.90;9.08;;;;;;;28.67;45.98;100533.39;1768703;79;21753;-53
2021/08/28 11:39:53;;;;;;;17.37;9.33;;;;;;;28.72;46.16;100538.41;1768675;80;21260;-53
2021/08/28 11:42:58;;;;;;;10.45;8.55;;;;;;;28.72;44.84;100533.33;1769749;80;21284;-52
2021/08/28 11:46:17;;;;;;;14.15;8.85;;;;;;;28.77;44.41;100536.12;1772039;79;21236;-52
2021/08/28 11:49:25;;;;;;;11.80;9.03;;;;;;;28.94;44.37;100521.91;1769874;80;21197;-52
2021/08/28 11:52:31;;;;;;;12.40;8.75;;;;;;;29.24;45.00;100527.89;1770180;80;21280;-52
2021/08/28 11:55:36;;;;;;;10.25;8.60;;;;;;;29.44;44.76;100533.94;1770820;79;21684;-52
2021/08/28 11:58:55;;;;;;;12.78;8.98;;;;;;;29.46;43.57;100533.93;1770606;80;21728;-53
2021/08/28 12:02:01;;;;;;;11.63;8.80;;;;;;;29.40;43.83;100537.91;1765759;80;21175;-54
2021/08/28 12:05:18;;;;;;;12.05;9.68;;;;;;;29.48;43.70;100530.81;1770378;80;21321;-54
2021/08/28 12:08:24;;;;;;;11.50;8.80;;;;;;;29.59;44.38;100520.52;1761942;80;21163;-50
2021/08/28 12:11:30;;;;;;;12.37;9.80;;;;;;;29.73;44.64;100527.77;1783546;79;21357;-53
2021/08/28 12:14:37;;;;;;;11.63;9.70;;;;;;;29.64;43.99;100521.91;1775293;79;21194;-54
2021/08/28 12:17:43;;;;;;;13.32;10.05;;;;;;;29.62;44.80;100519.91;1767124;80;21814;-54
2021/08/28 12:20:48;;;;;;;13.95;9.73;;;;;;;29.66;44.96;100515.41;1768924;80;21190;-51
2021/08/28 12:23:54;;;;;;;12.18;9.63;;;;;;;29.71;46.00;100518.73;1769383;80;21593;-53
2021/08/28 12:27:05;;;;;;;11.73;10.40;;;;;;;29.71;46.00;100518.73;1769227;80;21216;-54
2021/08/28 12:30:15;;;;;;;15.80;11.28;;;;;;;29.72;46.38;100518.44;1770241;80;21189;-55
2021/08/28 12:33:20;;;;;;;14.03;10.13;;;;;;;29.73;44.42;100517.29;1762021;81;21208;-56
2021/08/28 12:36:40;;;;;;;16.10;10.78;;;;;;;29.68;44.38;100513.70;1769388;80;21209;-55
2021/08/28 12:39:47;;;;;;;13.50;10.58;;;;;;;29.68;44.38;100513.70;1769925;80;21217;-55
2021/08/28 12:42:53;;;;;;;18.95;12.33;;;;;;;29.65;43.66;100513.73;1771064;80;21714;-54
2021/08/28 12:46:01;;;;;;;15.48;10.82;;;;;;;29.63;42.79;100506.66;1771450;79;21237;-54
2021/08/28 12:49:29;;;;;;;12.98;10.88;;;;;;;29.58;43.28;100516.02;1800483;79;21208;-54
2021/08/28 12:52:49;;;;;;;14.35;11.35;;;;;;;29.56;43.82;100507.59;1798984;79;21272;-54
2021/08/28 12:55:55;;;;;;;15.95;11.40;;;;;;;29.59;44.36;100504.99;1769392;80;21252;-55
2021/08/28 12:59:00;;;;;;;17.12;11.00;;;;;;;29.56;44.63;100507.59;1741514;81;21204;-55
2021/08/28 13:02:07;;;;;;;15.78;11.08;;;;;;;29.48;44.66;100509.05;1768921;80;21176;-54
2021/08/28 13:05:13;;;;;;;12.63;10.00;;;;;;;29.35;45.50;100500.45;1769998;80;21265;-55
2021/08/28 13:08:18;;;;;;;14.50;11.33;;;;;;;29.26;45.11;100514.94;1770255;81;21206;-55
2021/08/28 13:11:32;;;;;;;16.17;12.00;;;;;;;29.12;44.77;100507.70;1770497;79;21770;-54
2021/08/28 13:14:42;;;;;;;14.13;11.15;;;;;;;28.97;45.85;100508.63;1769608;80;21209;-54
2021/08/28 13:17:50;;;;;;;17.02;11.53;;;;;;;28.86;46.61;100507.02;1768843;80;21212;-54
2021/08/28 13:21:02;;;;;;;16.15;11.90;;;;;;;28.86;46.83;100509.84;1769218;80;21229;-55
2021/08/28 13:24:19;;;;;;;13.62;10.88;;;;;;;28.95;47.72;100510.92;1768942;80;21209;-54
2021/08/28 13:27:26;;;;;;;12.43;11.12;;;;;;;29.01;47.14;100504.66;1763273;81;21539;-54
2021/08/28 13:30:38;;;;;;;15.38;11.55;;;;;;;29.02;46.86;100504.92;1770482;80;21213;-56
2021/08/28 13:33:43;;;;;;;16.30;11.20;;;;;;;29.02;46.97;100504.36;1770774;81;21315;-55
2021/08/28 13:36:49;;;;;;;18.57;11.80;;;;;;;29.08;46.43;100502.39;1770730;81;21228;-55
2021/08/28 13:39:56;;;;;;;15.58;11.83;;;;;;;29.09;46.18;100499.84;1770742;80;21765;-53
2021/08/28 13:43:02;;;;;;;16.95;11.50;;;;;;;29.01;45.96;100501.84;1763719;81;21790;-53
2021/08/28 13:46:08;;;;;;;16.50;11.73;;;;;;;28.91;46.33;100501.34;1770705;80;21193;-53
2021/08/28 13:49:13;;;;;;;15.83;12.15;;;;;;;28.85;46.68;100498.86;1770831;81;21193;-54
2021/08/28 13:52:18;;;;;;;14.75;11.83;;;;;;;28.84;45.93;100492.95;1770438;81;21292;-56
2021/08/28 13:55:25;;;;;;;14.00;11.63;;;;;;;28.84;45.33;100490.95;1770314;81;21785;-53
2021/08/28 13:58:30;;;;;;;16.45;12.30;;;;;;;28.81;45.45;100492.95;1771013;80;21211;-54
2021/08/28 14:01:35;;;;;;;15.90;11.85;;;;;;;28.81;45.46;100502.83;1770355;80;21885;-54
2021/08/28 14:04:41;;;;;;;16.80;12.78;;;;;;;28.77;45.02;100503.70;1770189;80;21224;-54
2021/08/28 14:07:46;;;;;;;15.32;12.82;;;;;;;28.68;46.22;100504.06;1777518;79;21204;-54
2021/08/28 14:10:53;;;;;;;20.92;12.90;;;;;;;28.63;46.30;100502.13;1797700;79;21416;-55
2021/08/28 14:13:59;;;;;;;16.90;12.73;;;;;;;28.62;47.12;100503.83;1705896;83;21208;-54
2021/08/28 14:17:05;;;;;;;17.05;13.05;;;;;;;28.54;47.22;100506.66;1734055;82;21265;-54
2021/08/28 14:20:15;;;;;;;18.30;12.37;;;;;;;28.47;47.89;100506.68;1795928;79;21189;-53
2021/08/28 14:23:20;;;;;;;18.52;13.45;;;;;;;28.35;48.21;100510.42;1790867;79;21197;-54